KOXC/OXC METAR and TAF weather

Enter ICAO airport designator
Station Type Date Time Source
KOXC METAR 2022/06/30 12:51 UTC NOAA

KOXC 301251Z VRB04KT 10SM CLR 21/13 A3024 RMK AO2 SLP249 T02060133


Station Type Date Time Source
KOXC Decoded METAR 2022/06/30 12:51 UTC NOAA

Oxford, Waterbury-Oxford Airport, CT, United States (KOXC) 41-29N 073-08W
Jun 30, 2022 - 08:51 AM EDT / 2022.06.30 1251 UTC
Wind: Variable at 5 MPH (4 KT):0
Visibility: 10 mile(s):0
Sky conditions: clear
Temperature: 69.1 F (20.6 C)
Dew Point: 55.9 F (13.3 C)
Relative Humidity: 62%
Pressure (altimeter): 30.24 in. Hg (1024 hPa)
ob: KOXC 301251Z VRB04KT 10SM CLR 21/13 A3024 RMK AO2 SLP249 T02060133
cycle: 13

Station Type Date Time Source
KOXC TAF UTC NOAA

Error!

Example: see airport list